Chem Amsterdam — V7BY2 — position and weather

sailwx.info

Track history (hours):
 
Tides and Currents Weather Stations Pressure Air Temp Water Temp Dewpoint Dewpoint Depression Visibility Wind Speed Wind Dir Waves Ship Positions

Chem Amsterdam

Last reported at 2018-Feb-19 13:28 UTC. Time now 2018-Feb-19 14:00 UTC.
Position N 39°56' W 075°08'.

Length 142 m; draft 6.5 m.

Type: Ship. MMSI: 538005215.

Date/timePositionNaut miles runAvg speedWind from/ knotsBaromVisibWave heightAir tempDewpointWater temp
2018-Feb-19 13:28N 39°56' W 075°08'0 0.0
2018-Feb-19 12:58N 39°56' W 075°08'0 0.0
2018-Feb-19 12:28N 39°56' W 075°08'0 0.0
2018-Feb-19 11:58N 39°56' W 075°08'0 0.0
2018-Feb-19 11:28N 39°56' W 075°08'0 0.0
2018-Feb-19 10:58N 39°56' W 075°08'0 0.0
2018-Feb-19 10:28N 39°56' W 075°08'0 0.3
2018-Feb-19 09:58N 39°56' W 075°08'0 0.1
2018-Feb-19 09:28N 39°56' W 075°08'0 0.0
2018-Feb-19 08:58N 39°56' W 075°08'0 0.0
2018-Feb-19 08:23N 39°56' W 075°08'1 2.2
2018-Feb-19 08:00N 39°57' W 075°08'3 5.0
2018-Feb-19 07:30N 39°59' W 075°06'0 0.1
2018-Feb-19 07:00N 39°59' W 075°06'0 0.0
2018-Feb-19 06:30N 39°59' W 075°06'0 0.0
2018-Feb-19 06:00N 39°59' W 075°06'0 0.0
2018-Feb-19 05:27N 39°59' W 075°06'0 0.0
2018-Feb-19 05:00N 39°59' W 075°06'0 0.0
2018-Feb-19 04:30N 39°59' W 075°06'0 0.0
2018-Feb-19 04:00N 39°59' W 075°06'0 0.0
2018-Feb-19 03:30N 39°59' W 075°06'0 0.0
2018-Feb-19 03:00N 39°59' W 075°06'0 0.0
2018-Feb-19 02:30N 39°59' W 075°06'0 0.0
2018-Feb-19 02:00N 39°59' W 075°06'0 0.0
2018-Feb-19 01:30N 39°59' W 075°06'0 0.0
2018-Feb-19 01:00N 39°59' W 075°06'0 0.0
2018-Feb-19 00:30N 39°59' W 075°06'0 0.0
2018-Feb-19 00:00N 39°59' W 075°06'0 0.0
2018-Feb-18 23:30N 39°59' W 075°06'0 0.0
2018-Feb-18 23:00N 39°59' W 075°06'0 0.0
2018-Feb-18 22:30N 39°59' W 075°06'0 0.0
2018-Feb-18 22:00N 39°59' W 075°06'0 0.0
2018-Feb-18 21:30N 39°59' W 075°06'0 0.0
2018-Feb-18 21:00N 39°59' W 075°06'0 0.0
2018-Feb-18 20:30N 39°59' W 075°06'0 0.0
2018-Feb-18 20:00N 39°59' W 075°06'0 0.0
2018-Feb-18 19:30N 39°59' W 075°06'0 0.0
2018-Feb-18 19:00N 39°59' W 075°06'0 0.0
2018-Feb-18 18:30N 39°59' W 075°06'0 0.0
2018-Feb-18 18:00N 39°59' W 075°06'0 0.0
2018-Feb-18 17:30N 39°59' W 075°06'0 0.0
2018-Feb-18 17:00N 39°59' W 075°06'0 0.0
2018-Feb-18 16:30N 39°59' W 075°06'0 0.0
2018-Feb-18 16:00N 39°59' W 075°06'0 0.0
2018-Feb-18 15:30N 39°59' W 075°06'0 0.0
2018-Feb-18 15:00N 39°59' W 075°06'0 0.0
2018-Feb-18 14:30N 39°59' W 075°06'0 0.0
2018-Feb-18 14:00N 39°59' W 075°06'0 0.0
2018-Feb-18 13:30N 39°59' W 075°06'1 1.7
2018-Feb-18 13:00N 39°58' W 075°07'3 6.4
2018-Feb-18 12:30N 39°55' W 075°08'4 7.1
2018-Feb-18 12:00N 39°53' W 075°11'5 9.7
2018-Feb-18 11:30N 39°51' W 075°17'5 9.6
2018-Feb-18 11:00N 39°49' W 075°23'5 9.8
2018-Feb-18 10:30N 39°46' W 075°28'510.3
2018-Feb-18 10:00N 39°42' W 075°31'511.0
2018-Feb-18 09:30N 39°37' W 075°35'511.0
2018-Feb-18 09:00N 39°32' W 075°33'610.9
2018-Feb-18 08:30N 39°26' W 075°32'611.7
2018-Feb-18 08:00N 39°22' W 075°27'611.8
2018-Feb-18 07:30N 39°17' W 075°22'612.1
2018-Feb-18 07:00N 39°13' W 075°17'612.1
2018-Feb-18 06:30N 39°08' W 075°13'611.8
2018-Feb-18 06:00N 39°02' W 075°10'612.1
2018-Feb-18 05:30N 38°57' W 075°07'1011.2
2018-Feb-18 04:35N 38°47' W 075°02'11310.5
2018-Feb-17 17:48N 36°59' W 075°44'310.9
2018-Feb-17 17:29N 36°57' W 075°47'511.0
2018-Feb-17 17:00N 36°55' W 075°54'5 9.1
2018-Feb-17 16:29N 36°56' W 075°59'511.0
2018-Feb-17 16:00N 36°58' W 076°06'611.4
2018-Feb-17 15:30N 36°60' W 076°12'610.6
2018-Feb-17 14:59N 36°59' W 076°19'510.4
2018-Feb-17 14:30N 36°57' W 076°25'510.5
2018-Feb-17 13:58N 37°01' W 076°30'4 0.2
2018-Feb-16 17:24N 37°03' W 076°35'511.9
2018-Feb-16 16:57N 37°01' W 076°29'510.6
2018-Feb-16 16:30N 36°57' W 076°25'5 9.2
2018-Feb-16 16:00N 36°59' W 076°19'610.7
2018-Feb-16 15:29N 37°00' W 076°13'713.7
2018-Feb-16 15:00N 36°58' W 076°05'4 8.8
2018-Feb-16 14:30N 36°57' W 075°60'4 8.2
2018-Feb-16 14:00N 36°56' W 075°55'2 4.0
2018-Feb-16 13:30N 36°54' W 075°53'2 4.3
2018-Feb-16 13:00N 36°53' W 075°51'  
Track history (hours):
 
Tides and Currents Weather Stations Pressure Air Temp Water Temp Dewpoint Dewpoint Depression Visibility Wind Speed Wind Dir Waves Ship Positions

Chem Amsterdam

Last reported at 2018-Feb-19 13:28 UTC. Time now 2018-Feb-19 14:00 UTC.
Position N 39°56' W 075°08'.

Length 142 m; draft 6.5 m.

Type: Ship. MMSI: 538005215.

Date/timePositionNaut miles runAvg speedWind from/ knotsBaromVisibWave heightAir tempDewpointWater temp
2018-Feb-19 13:28N 39°56' W 075°08'0 0.0
2018-Feb-19 12:58N 39°56' W 075°08'0 0.0
2018-Feb-19 12:28N 39°56' W 075°08'0 0.0
2018-Feb-19 11:58N 39°56' W 075°08'0 0.0
2018-Feb-19 11:28N 39°56' W 075°08'0 0.0
2018-Feb-19 10:58N 39°56' W 075°08'0 0.0
2018-Feb-19 10:28N 39°56' W 075°08'0 0.3
2018-Feb-19 09:58N 39°56' W 075°08'0 0.1
2018-Feb-19 09:28N 39°56' W 075°08'0 0.0
2018-Feb-19 08:58N 39°56' W 075°08'0 0.0
2018-Feb-19 08:23N 39°56' W 075°08'1 2.2
2018-Feb-19 08:00N 39°57' W 075°08'3 5.0
2018-Feb-19 07:30N 39°59' W 075°06'0 0.1
2018-Feb-19 07:00N 39°59' W 075°06'0 0.0
2018-Feb-19 06:30N 39°59' W 075°06'0 0.0
2018-Feb-19 06:00N 39°59' W 075°06'0 0.0
2018-Feb-19 05:27N 39°59' W 075°06'0 0.0
2018-Feb-19 05:00N 39°59' W 075°06'0 0.0
2018-Feb-19 04:30N 39°59' W 075°06'0 0.0
2018-Feb-19 04:00N 39°59' W 075°06'0 0.0
2018-Feb-19 03:30N 39°59' W 075°06'0 0.0
2018-Feb-19 03:00N 39°59' W 075°06'0 0.0
2018-Feb-19 02:30N 39°59' W 075°06'0 0.0
2018-Feb-19 02:00N 39°59' W 075°06'0 0.0
2018-Feb-19 01:30N 39°59' W 075°06'0 0.0
2018-Feb-19 01:00N 39°59' W 075°06'0 0.0
2018-Feb-19 00:30N 39°59' W 075°06'0 0.0
2018-Feb-19 00:00N 39°59' W 075°06'0 0.0
2018-Feb-18 23:30N 39°59' W 075°06'0 0.0
2018-Feb-18 23:00N 39°59' W 075°06'0 0.0
2018-Feb-18 22:30N 39°59' W 075°06'0 0.0
2018-Feb-18 22:00N 39°59' W 075°06'0 0.0
2018-Feb-18 21:30N 39°59' W 075°06'0 0.0
2018-Feb-18 21:00N 39°59' W 075°06'0 0.0
2018-Feb-18 20:30N 39°59' W 075°06'0 0.0
2018-Feb-18 20:00N 39°59' W 075°06'0 0.0
2018-Feb-18 19:30N 39°59' W 075°06'0 0.0
2018-Feb-18 19:00N 39°59' W 075°06'0 0.0
2018-Feb-18 18:30N 39°59' W 075°06'0 0.0
2018-Feb-18 18:00N 39°59' W 075°06'0 0.0
2018-Feb-18 17:30N 39°59' W 075°06'0 0.0
2018-Feb-18 17:00N 39°59' W 075°06'0 0.0
2018-Feb-18 16:30N 39°59' W 075°06'0 0.0
2018-Feb-18 16:00N 39°59' W 075°06'0 0.0
2018-Feb-18 15:30N 39°59' W 075°06'0 0.0
2018-Feb-18 15:00N 39°59' W 075°06'0 0.0
2018-Feb-18 14:30N 39°59' W 075°06'0 0.0
2018-Feb-18 14:00N 39°59' W 075°06'0 0.0
2018-Feb-18 13:30N 39°59' W 075°06'1 1.7
2018-Feb-18 13:00N 39°58' W 075°07'3 6.4
2018-Feb-18 12:30N 39°55' W 075°08'4 7.1
2018-Feb-18 12:00N 39°53' W 075°11'5 9.7
2018-Feb-18 11:30N 39°51' W 075°17'5 9.6
2018-Feb-18 11:00N 39°49' W 075°23'5 9.8
2018-Feb-18 10:30N 39°46' W 075°28'510.3
2018-Feb-18 10:00N 39°42' W 075°31'511.0
2018-Feb-18 09:30N 39°37' W 075°35'511.0
2018-Feb-18 09:00N 39°32' W 075°33'610.9
2018-Feb-18 08:30N 39°26' W 075°32'611.7
2018-Feb-18 08:00N 39°22' W 075°27'611.8
2018-Feb-18 07:30N 39°17' W 075°22'612.1
2018-Feb-18 07:00N 39°13' W 075°17'612.1
2018-Feb-18 06:30N 39°08' W 075°13'611.8
2018-Feb-18 06:00N 39°02' W 075°10'612.1
2018-Feb-18 05:30N 38°57' W 075°07'1011.2
2018-Feb-18 04:35N 38°47' W 075°02'11310.5
2018-Feb-17 17:48N 36°59' W 075°44'310.9
2018-Feb-17 17:29N 36°57' W 075°47'511.0
2018-Feb-17 17:00N 36°55' W 075°54'5 9.1
2018-Feb-17 16:29N 36°56' W 075°59'511.0
2018-Feb-17 16:00N 36°58' W 076°06'611.4
2018-Feb-17 15:30N 36°60' W 076°12'610.6
2018-Feb-17 14:59N 36°59' W 076°19'510.4
2018-Feb-17 14:30N 36°57' W 076°25'510.5
2018-Feb-17 13:58N 37°01' W 076°30'4 0.2
2018-Feb-16 17:24N 37°03' W 076°35'511.9
2018-Feb-16 16:57N 37°01' W 076°29'510.6
2018-Feb-16 16:30N 36°57' W 076°25'5 9.2
2018-Feb-16 16:00N 36°59' W 076°19'610.7
2018-Feb-16 15:29N 37°00' W 076°13'713.7
2018-Feb-16 15:00N 36°58' W 076°05'4 8.8
2018-Feb-16 14:30N 36°57' W 075°60'4 8.2
2018-Feb-16 14:00N 36°56' W 075°55'2 4.0
2018-Feb-16 13:30N 36°54' W 075°53'2 4.3
2018-Feb-16 13:00N 36°53' W 075°51'  

Dump ship's entire track history